Map

Track Data

SID SEASON NUMBER BASIN SUBBASIN NAME ISO_TIME NATURE LAT LON WMO_WIND WMO_PRES WMO_AGENCY TRACK_TYPE DIST2LAND LANDFALL IFLAG USA_AGENCY USA_ATCF_ID USA_LAT USA_LON USA_RECORD USA_STATUS USA_WIND USA_PRES USA_SSHS USA_R34_NE USA_R34_SE USA_R34_SW USA_R34_NW USA_R50_NE USA_R50_SE USA_R50_SW USA_R50_NW USA_R64_NE USA_R64_SE USA_R64_SW USA_R64_NW USA_POCI USA_ROCI USA_RMW USA_EYE TOKYO_LAT TOKYO_LON TOKYO_GRADE TOKYO_WIND TOKYO_PRES TOKYO_R50_DIR TOKYO_R50_LONG TOKYO_R50_SHORT TOKYO_R30_DIR TOKYO_R30_LONG TOKYO_R30_SHORT TOKYO_LAND CMA_LAT CMA_LON CMA_CAT CMA_WIND CMA_PRES HKO_LAT HKO_LON HKO_CAT HKO_WIND HKO_PRES NEWDELHI_LAT NEWDELHI_LON NEWDELHI_GRADE NEWDELHI_WIND NEWDELHI_PRES NEWDELHI_CI NEWDELHI_DP NEWDELHI_POCI REUNION_LAT REUNION_LON REUNION_TYPE REUNION_WIND REUNION_PRES REUNION_TNUM REUNION_CI REUNION_RMW REUNION_R34_NE REUNION_R34_SE REUNION_R34_SW REUNION_R34_NW REUNION_R50_NE REUNION_R50_SE REUNION_R50_SW REUNION_R50_NW REUNION_R64_NE REUNION_R64_SE REUNION_R64_SW REUNION_R64_NW BOM_LAT BOM_LON BOM_TYPE BOM_WIND BOM_PRES BOM_TNUM BOM_CI BOM_RMW BOM_R34_NE BOM_R34_SE BOM_R34_SW BOM_R34_NW BOM_R50_NE BOM_R50_SE BOM_R50_SW BOM_R50_NW BOM_R64_NE BOM_R64_SE BOM_R64_SW BOM_R64_NW BOM_ROCI BOM_POCI BOM_EYE BOM_POS_METHOD BOM_PRES_METHOD NADI_LAT NADI_LON NADI_CAT NADI_WIND NADI_PRES WELLINGTON_LAT WELLINGTON_LON WELLINGTON_WIND WELLINGTON_PRES DS824_LAT DS824_LON DS824_STAGE DS824_WIND DS824_PRES TD9636_LAT TD9636_LON TD9636_STAGE TD9636_WIND TD9636_PRES TD9635_LAT TD9635_LON TD9635_WIND TD9635_PRES TD9635_ROCI NEUMANN_LAT NEUMANN_LON NEUMANN_CLASS NEUMANN_WIND NEUMANN_PRES MLC_LAT MLC_LON MLC_CLASS MLC_WIND MLC_PRES USA_GUST BOM_GUST BOM_GUST_PER REUNION_GUST REUNION_GUST_PER USA_SEAHGT USA_SEARAD_NE USA_SEARAD_SE USA_SEARAD_SW USA_SEARAD_NW STORM_SPEED STORM_DIR
1952363N06171 1952 106 WP MM HESTER 1952-12-27 18:00:00 TS 6.40000 170.600 1000 tokyo main 1983 1962 OOO______O_O__ jtwc_wp WP281952 6.00000 173.000 TS 55 0 7.00000 167.000 2 1000 0 0 0 7.00000 167.000 1 29 1000 6.00000 173.000 TC 55 6.00000 173.000 55 999 240 11 282
1952363N06171 1952 106 WP MM HESTER 1952-12-27 21:00:00 TS 6.51766 170.054 main 1962 1949 PPP______P_P__ WP281952 6.04024 172.152 TS 60 0 7.26753 166.973 2 999 0 0 7.20003 166.840 1 33 999 6.04024 172.152 TC 60 6.04024 172.152 60 998 270 10 286
1952363N06171 1952 106 WP MM HESTER 1952-12-28 00:00:00 TS 6.66875 169.631 998 tokyo main 1953 1946 OOO______OOO__ jtwc_wp WP281952 6.20000 171.300 TY 65 1 7.50000 167.000 9 998 0 0 0 7.40000 166.700 2 38 998 6.20000 171.300 TC 65 6.20000 171.300 3 65 6.20000 171.300 65 997 300 10 296
1952363N06171 1952 106 WP MM HESTER 1952-12-28 03:00:00 TS 6.95597 169.134 main 1956 1950 PPP______PPP__ WP281952 6.55490 170.443 TY 65 1 7.67239 167.082 9 991 0 0 7.59995 166.580 2 53 991 6.55490 170.443 TC 65 6.64162 170.492 3 66 6.55490 170.443 65 996 270 12 301
1952363N06171 1952 106 WP MM HESTER 1952-12-28 06:00:00 TS 7.28689 168.601 985 tokyo main 1960 1955 OOO______OPO__ jtwc_wp WP281952 7.00000 169.600 TY 65 1 7.80000 167.000 9 985 0 0 0 7.80000 166.400 4 68 985 7.00000 169.600 TC 65 7.06618 169.677 3 67 7.00000 169.600 65 995 240 13 300
1952363N06171 1952 106 WP MM HESTER 1952-12-28 09:00:00 TS 7.60030 167.989 main 1962 1957 PPP______PPP__ WP281952 7.42223 168.807 TY 67 1 7.88514 166.532 9 985 0 0 7.99235 166.132 4 68 985 7.42223 168.807 TC 67 7.45762 168.848 3 68 7.42223 168.807 67 993 240 15 295
1952363N06171 1952 106 WP MM HESTER 1952-12-28 12:00:00 TS 7.90000 167.267 985 tokyo main 1963 1953 OOO______OOO__ jtwc_wp WP281952 7.80000 168.000 TY 70 1 8.00000 165.900 9 985 0 0 0 8.20000 165.700 4 68 985 7.80000 168.000 TC 70 7.80000 168.000 4 70 7.80000 168.000 70 991 240 16 291
1952363N06171 1952 106 WP MM HESTER 1952-12-28 15:00:00 TS 8.16060 166.490 main 1964 1952 PPP______PPP__ WP281952 8.07234 167.122 TY 72 1 8.22736 165.365 9 985 0 0 8.43493 165.082 4 68 985 8.07234 167.122 TC 72 8.08427 167.127 4 72 8.07234 167.122 72 989 240 17 288
1952363N06171 1952 106 WP MM HESTER 1952-12-28 18:00:00 TS 8.40481 165.654 985 tokyo main 1953 1927 OOO______OPO__ jtwc_wp WP281952 8.30000 166.200 TY 75 1 8.50000 164.800 9 985 0 0 0 8.70000 164.300 4 68 985 8.30000 166.200 TC 75 8.32887 166.223 4 75 8.30000 166.200 75 987 240 17 287
1952363N06171 1952 106 WP MM HESTER 1952-12-28 21:00:00 TS 8.65954 164.802 main 1930 1890 PPP______PPP__ WP281952 8.55721 165.272 TY 77 1 8.72665 164.277 9 985 0 0 8.99993 163.437 4 68 985 8.55721 165.272 TC 77 8.55905 165.283 4 77 8.55721 165.272 77 985 210 18 286
1952363N06171 1952 106 WP MM HESTER 1952-12-29 00:00:00 TS 8.91667 163.867 985 tokyo main 1890 1837 OOO______OOO__ jtwc_wp WP281952 8.80000 164.300 TY 80 1 9.00000 163.500 9 985 0 0 0 9.30000 162.500 4 68 985 8.80000 164.300 TC 80 8.80000 164.300 4 80 8.80000 164.300 80 983 180 21 285
1952363N06171 1952 106 WP MM HESTER 1952-12-29 03:00:00 TS 9.17350 162.794 main 1840 1784 PPP______PPP__ WP281952 8.97726 163.272 TY 82 1 9.42389 162.131 9 985 0 0 9.57997 161.535 4 72 985 8.97726 163.272 TC 82 9.10533 163.280 4 82 8.97726 163.272 82 980 240 22 284
1952363N06171 1952 106 WP MM HESTER 1952-12-29 06:00:00 TS 9.43693 161.686 985 tokyo main 1784 1747 OOO______OPO__ jtwc_wp WP281952 9.20000 162.200 TY 85 2 9.80000 160.700 9 985 0 0 0 9.80000 160.600 4 77 985 9.20000 162.200 TC 85 9.42156 162.217 4 85 9.20000 162.200 85 978 300 22 285
1952363N06171 1952 106 WP MM HESTER 1952-12-29 09:00:00 TS 9.73320 160.675 main 1747 1717 PPP______PPP__ WP281952 9.60700 161.130 TY 87 2 9.93656 159.759 9 982 0 0 9.91464 159.777 4 77 982 9.60700 161.130 TC 87 9.72698 161.121 4 87 9.60700 161.130 87 976 300 21 286
1952363N06171 1952 106 WP MM HESTER 1952-12-29 12:00:00 TS 10.0000 159.667 980 tokyo main 1717 1676 OOO______OOO__ jtwc_wp WP281952 10.0000 160.000 TY 90 2 10.0000 159.000 9 980 0 0 0 10.0000 159.000 4 77 980 10.0000 160.000 TC 90 10.0000 160.000 4 90 10.0000 160.000 90 974 300 21 282
1952363N06171 1952 106 WP MM HESTER 1952-12-29 15:00:00 TS 10.1751 158.596 main 1675 1634 PPP______PPP__ WP281952 10.1801 158.742 TY 95 2 10.1419 158.237 9 980 0 0 10.1420 158.237 4 77 980 10.1801 158.742 TC 95 10.2262 158.875 4 95 10.1801 158.742 95 972 270 22 279
1952363N06171 1952 106 WP MM HESTER 1952-12-29 18:00:00 TS 10.3194 157.505 980 tokyo main 1629 1602 OOO______OPO__ jtwc_wp WP281952 10.3000 157.500 TY 100 3 10.3000 157.400 9 980 0 0 0 10.3000 157.400 4 77 980 10.3000 157.500 TC 100 10.4162 157.729 4 100 10.3000 157.500 100 970 240 21 279
1952363N06171 1952 106 WP MM HESTER 1952-12-29 21:00:00 TS 10.4999 156.453 main 1603 1574 PPP______PPP__ WP281952 10.5066 156.443 TY 105 3 10.4493 156.405 9 977 0 0 10.4572 156.417 4 82 977 10.5066 156.443 TC 105 10.5730 156.569 4 105 10.5066 156.443 105 968 300 22 279
1952363N06171 1952 106 WP MM HESTER 1952-12-30 00:00:00 TS 10.6667 155.350 975 tokyo main 1578 1556 OOO______OOO__ jtwc_wp WP281952 10.7000 155.400 TY 110 3 10.6000 155.200 9 975 0 0 0 10.6000 155.300 5 87 975 10.7000 155.400 TC 110 10.7000 155.400 4 110 10.7000 155.400 110 966 360 23 277
1952363N06171 1952 106 WP MM HESTER 1952-12-30 03:00:00 TS 10.7885 154.111 main 1553 1535 PPP______PPP__ WP281952 10.8224 154.215 TY 112 3 10.7584 153.700 9 967 0 0 10.7074 154.072 5 92 967 10.8224 154.215 TC 112 10.7979 154.251 4 112 10.8224 154.215 112 963 330 25 275
1952363N06171 1952 106 WP MM HESTER 1952-12-30 06:00:00 TS 10.8783 152.849 960 tokyo main 1538 1527 OOO______OPO__ jtwc_wp WP281952 10.9000 153.000 TY 115 4 10.9000 152.200 9 960 0 0 0 10.8000 152.800 5 97 960 10.9000 153.000 TC 115 10.8700 153.094 4 115 10.9000 153.000 115 960 300 24 274
1952363N06171 1952 106 WP MM HESTER 1952-12-30 09:00:00 TS 10.9551 151.691 main 1537 1509 PPP______PPP__ WP281952 10.9566 151.872 TY 117 4 11.0215 151.025 9 960 0 0 10.9069 151.593 5 97 960 10.9566 151.872 TC 117 10.9321 151.914 4 117 10.9566 151.872 117 957 270 23 273
1952363N06171 1952 106 WP MM HESTER 1952-12-30 12:00:00 TS 11.0167 150.533 960 tokyo main 1507 1484 OOO______OOO__ jtwc_wp WP281952 11.0000 150.700 TY 120 4 11.1000 150.000 9 960 0 0 0 11.0000 150.400 5 97 960 11.0000 150.700 TC 120 11.0000 150.700 4 120 11.0000 150.700 120 955 240 24 272
1952363N06171 1952 106 WP MM HESTER 1952-12-30 15:00:00 TS 11.0519 149.283 main 1493 1481 PPP______PPP__ WP281952 11.0350 149.365 TY 125 4 11.0843 149.007 9 957 0 0 11.0496 149.192 5 97 960 11.0350 149.365 TC 125 11.0724 149.407 4 125 11.0350 149.365 125 951 270 25 272
1952363N06171 1952 106 WP MM HESTER 1952-12-30 18:00:00 TS 11.1092 148.014 955 tokyo main 1480 1479 OOO______OPO__ jtwc_wp WP281952 11.1000 148.000 ST 130 4 11.1000 148.000 9 955 0 0 0 11.1000 148.000 5 97 960 11.1000 148.000 TC 130 11.1550 148.084 4 130 11.1000 148.000 130 948 300 25 274
1952363N06171 1952 106 WP MM HESTER 1952-12-30 21:00:00 TS 11.2374 146.780 main 1490 1490 PPP______PPP__ WP281952 11.2268 146.735 ST 135 4 11.2923 146.873 9 955 0 0 11.1921 146.835 5 101 957 11.2268 146.735 TC 135 11.2600 146.769 4 135 11.2268 146.735 135 944 300 24 277
1952363N06171 1952 106 WP MM HESTER 1952-12-31 00:00:00 TS 11.4000 145.567 955 tokyo main 1516 1516 OOO______OOO__ jtwc_wp WP281952 11.4000 145.500 ST 140 5 11.5000 145.700 9 955 0 0 0 11.3000 145.700 6 106 955 11.4000 145.500 TC 140 11.4000 145.500 4 140 11.4000 145.500 140 941 300 24 277
1952363N06171 1952 106 WP MM HESTER 1952-12-31 03:00:00 TS 11.5459 144.337 main 1544 1544 PPP______PPP__ WP281952 11.5849 144.212 ST 145 5 11.5647 144.535 9 955 0 0 11.3920 144.592 6 106 955 11.5849 144.212 TC 145 11.5639 144.260 4 145 11.5849 144.212 145 936 360 24 278
1952363N06171 1952 106 WP MM HESTER 1952-12-31 06:00:00 TS 11.7112 143.163 955 tokyo main 1589 1568 OOO______OPO__ jtwc_wp WP281952 11.8000 143.000 ST 150 5 11.6000 143.400 9 955 0 0 0 11.5000 143.500 6 106 955 11.8000 143.000 TC 150 11.7669 143.078 4 150 11.8000 143.000 150 932 420 22 279
1952363N06171 1952 106 WP MM HESTER 1952-12-31 09:00:00 TS 11.8806 142.089 main 1572 1557 PPP______PPP__ WP281952 12.0117 141.962 ST 155 5 11.6322 142.312 9 957 0 0 11.6050 142.355 6 106 955 12.0117 141.962 TC 155 12.0114 141.982 4 155 12.0117 141.962 155 926 390 21 282
1952363N06171 1952 106 WP MM HESTER 1952-12-31 12:00:00 TS 12.1261 141.104 960 tokyo main 1555 1551 OOO______OOO__ jtwc_wp WP281952 12.3000 141.000 ST 160 5 11.8000 141.300 9 960 0 0 0 11.8000 141.300 6 106 955 12.3000 141.000 TC 160 12.3000 141.000 4 160 12.3000 141.000 160 921 360 20 289
1952363N06171 1952 106 WP MM HESTER 1952-12-31 15:00:00 TS 12.5289 140.130 main 1560 1486 PPP______PPP__ WP281952 12.7429 139.918 ST 160 5 12.2624 140.326 9 960 0 0 12.1620 140.433 6 111 955 12.7429 139.918 TC 160 12.6423 140.116 4 160 12.7135 140.014 160 919 390 20 296
1952363N06171 1952 106 WP MM HESTER 1952-12-31 18:00:00 TS 12.9763 139.295 960 tokyo main 1486 1426 OOO______OPO__ jtwc_wp WP281952 13.2000 139.000 ST 160 5 12.8000 139.500 9 960 0 0 0 12.6000 139.700 6 116 955 13.2000 139.000 TC 160 13.0255 139.348 4 160 13.2000 139.000 160 918 420 16 300
1952363N06171 1952 106 WP MM HESTER 1952-12-31 21:00:00 TS 13.3378 138.703 main 1426 1381 PPP______PP___ WP281952 13.5368 138.467 ST 160 5 13.1795 138.897 9 957 0 0 13.0148 139.005 6 116 955 13.5368 138.467 TC 160 13.4210 138.682 4 160 13 303
1952363N06171 1952 106 WP MM HESTER 1953-01-01 00:00:00 TS 13.6667 138.214 955 tokyo main 1381 1332 OOO______OO___ jtwc_wp WP281952 13.8000 138.100 ST 160 5 13.5000 138.400 9 955 0 0 0 13.4000 138.400 6 116 955 13.8000 138.100 TC 160 13.8000 138.100 4 160 11 301
1952363N06171 1952 106 WP MM HESTER 1953-01-01 03:00:00 TS 13.9232 137.708 main 1332 1295 PPP______PP___ WP281952 13.9849 137.650 ST 155 5 13.7999 137.850 9 952 0 0 13.7147 137.885 6 116 955 13.9849 137.650 TC 155 14.1167 137.538 4 157 11 298
1952363N06171 1952 106 WP MM HESTER 1953-01-01 06:00:00 TS 14.1850 137.227 950 tokyo main 1286 1249 OOO______OP___ jtwc_wp WP281952 14.2000 137.200 ST 150 5 14.1000 137.300 9 950 0 0 0 14.0000 137.400 6 116 955 14.2000 137.200 TC 150 14.4140 137.057 4 155 11 303
1952363N06171 1952 106 WP MM HESTER 1953-01-01 09:00:00 TS 14.5386 136.748 main 1239 1206 PPP______PP___ WP281952 14.5924 136.750 ST 150 5 14.4574 136.743 9 950 0 0 14.2925 136.850 6 116 955 14.5924 136.750 TC 150 14.7044 136.647 4 152 12 308
1952363N06171 1952 106 WP MM HESTER 1953-01-01 12:00:00 TS 14.9000 136.283 950 tokyo main 1206 1159 OOO______OO___ jtwc_wp WP281952 15.0000 136.300 ST 150 5 14.8000 136.200 9 950 0 0 0 14.6000 136.300 6 116 955 15.0000 136.300 TC 150 15.0000 136.300 4 150 11 304
1952363N06171 1952 106 WP MM HESTER 1953-01-01 15:00:00 TS 15.1627 135.795 main 1162 1127 PPP______PP___ WP281952 15.2502 135.790 ST 145 5 15.0201 135.640 9 952 0 0 14.9125 135.770 6 116 955 15.2502 135.790 TC 145 15.2929 135.992 4 145 10 303
1952363N06171 1952 106 WP MM HESTER 1953-01-01 18:00:00 TS 15.4495 135.406 955 tokyo main 1127 1120 OOO______OP___ jtwc_wp WP281952 15.5000 135.400 ST 140 5 15.3000 135.200 9 955 0 0 0 15.3000 135.300 6 116 955 15.5000 135.400 TC 140 15.5969 135.739 4 140 9 322
1952363N06171 1952 106 WP MM HESTER 1953-01-01 21:00:00 TS 15.8540 135.242 main 1125 1125 PPP______PP___ WP281952 15.8697 135.342 ST 135 4 15.7823 135.019 9 955 0 0 15.8050 134.890 6 116 955 15.8697 135.342 TC 135 15.9274 135.517 4 135 9 342
1952363N06171 1952 106 WP MM HESTER 1953-01-02 00:00:00 TS 16.3333 135.117 955 tokyo main 1132 1125 OOO______OO___ jtwc_wp WP281952 16.3000 135.300 ST 130 4 16.4000 134.900 9 955 0 0 0 16.4000 134.600 6 116 955 16.3000 135.300 TC 130 16.3000 135.300 4 130 11 336
1952363N06171 1952 106 WP MM HESTER 1953-01-02 03:00:00 TS 16.8503 134.779 main 1130 1118 PPP______PP___ WP281952 16.7353 134.908 ST 125 4 17.1152 134.578 9 955 0 0 17.0649 134.432 6 116 955 16.7353 134.908 TC 125 16.7158 134.942 4 126 12 329
1952363N06171 1952 106 WP MM HESTER 1953-01-02 06:00:00 TS 17.3792 134.467 955 tokyo main 1129 1119 OOO______OP___ jtwc_wp WP281952 17.2000 134.500 TY 120 4 17.8000 134.300 9 955 0 0 0 17.7000 134.400 6 116 955 17.2000 134.500 TC 120 17.1750 134.601 4 122 11 336
1952363N06171 1952 106 WP MM HESTER 1953-01-02 09:00:00 TS 17.8581 134.319 main 1140 1140 PPP______PP___ WP281952 17.6773 134.310 TY 117 4 18.2797 134.188 9 955 0 0 18.1649 134.440 6 111 957 17.6773 134.310 TC 117 17.6717 134.359 4 118 10 353
1952363N06171 1952 106 WP MM HESTER 1953-01-02 12:00:00 TS 18.3500 134.350 955 tokyo main 1171 1164 OOO______OO___ jtwc_wp WP281952 18.2000 134.300 TY 115 4 18.7000 134.300 9 955 0 0 0 18.6000 134.600 6 106 960 18.2000 134.300 TC 115 18.2000 134.300 4 115 11 10
1952363N06171 1952 106 WP MM HESTER 1953-01-02 15:00:00 TS 18.9220 134.513 main 1213 1213 PPP______PP___ WP281952 18.7921 134.388 TY 110 3 19.2301 134.674 9 957 0 0 19.1573 134.833 6 106 960 18.7921 134.388 TC 110 18.7679 134.406 4 110 13 23
1952363N06171 1952 106 WP MM HESTER 1953-01-02 18:00:00 TS 19.4934 134.869 960 tokyo main 1281 1281 OOO______OP___ jtwc_wp WP281952 19.4000 134.700 TD 105 3 19.7000 135.200 9 960 0 0 0 19.7000 135.200 6 106 960 19.4000 134.700 TC 105 19.3603 134.717 4 105 13 37
1952363N06171 1952 106 WP MM HESTER 1953-01-02 21:00:00 TS 19.9818 135.375 main 1315 1297 PPP______PP___ WP281952 19.9646 135.230 TD 100 3 19.9344 135.641 9 960 0 0 20.1147 135.676 6 106 960 19.9646 135.230 TC 100 19.9478 135.244 4 100 15 50
1952363N06171 1952 106 WP MM HESTER 1953-01-03 00:00:00 TS 20.4500 136.083 960 tokyo main 1290 1276 OOO______OO___ jtwc_wp WP281952 20.5000 136.000 TD 95 2 20.2000 136.200 9 960 0 0 0 20.5000 136.300 6 106 960 20.5000 136.000 TC 95 20.5000 136.000 4 95 18 56
1952363N06171 1952 106 WP MM HESTER 1953-01-03 03:00:00 TS 20.9751 136.940 main 1276 1276 PPP______PP___ WP281952 21.0290 136.888 TD 92 2 20.7929 137.004 9 962 0 0 20.9646 137.032 6 101 962 21.0290 136.888 TC 92 21.0058 136.939 4 91 20 60
1952363N06171 1952 106 WP MM HESTER 1953-01-03 06:00:00 TS 21.4606 137.983 965 tokyo main 1285 1285 OOO______OP___ jtwc_wp WP281952 21.5000 138.000 TD 90 2 21.4000 137.900 9 965 0 0 0 21.4000 137.900 5 97 965 21.5000 138.000 TC 90 21.4636 138.099 4 87 22 67
1952363N06171 1952 106 WP MM HESTER 1953-01-03 09:00:00 TS 21.8381 139.142 main 1316 1312 PPP______PP___ WP281952 21.8804 139.348 TD 85 2 21.7794 138.581 9 967 0 0 21.7438 138.818 5 97 967 21.8804 139.348 TC 85 21.8641 139.409 4 83 24 74
1952363N06171 1952 106 WP MM HESTER 1953-01-03 12:00:00 TS 22.1333 140.433 970 tokyo main 1339 1336 OOO______OO___ jtwc_wp WP281952 22.2000 140.800 TD 80 1 22.0000 139.500 9 970 0 0 0 22.0000 139.900 5 97 970 22.2000 140.800 TC 80 22.2000 140.800 4 80 25 77
1952363N06171 1952 106 WP MM HESTER 1953-01-03 15:00:00 TS 22.3864 141.812 main 1361 1361 PPP______PP___ WP281952 22.5356 142.135 TD 75 1 22.0614 141.114 9 972 0 0 22.1806 141.220 5 92 972 22.5356 142.135 TC 75 22.4696 142.132 4 73 26 80
1952363N06171 1952 106 WP MM HESTER 1953-01-03 18:00:00 TS 22.5796 143.238 975 tokyo main 1406 1406 OOO______OP___ jtwc_wp WP281952 22.8000 143.500 TD 70 1 22.1000 142.800 9 975 0 0 0 22.3000 142.600 5 87 975 22.8000 143.500 TC 70 22.6774 143.528 4 67 26 83
1952363N06171 1952 106 WP MM HESTER 1953-01-03 21:00:00 TS 22.7216 144.577 main 1436 1436 PPP______PP___ WP281952 22.9288 144.964 TD 62 0 22.3150 143.843 9 982 0 0 22.3815 143.742 5 77 982 22.9288 144.964 TC 62 22.8466 144.985 4 61 25 84
1952363N06171 1952 106 WP MM HESTER 1953-01-04 00:00:00 TS 22.8500 145.983 990 tokyo main 1464 1464 OOO______OO___ jtwc_wp WP281952 23.0000 146.500 TD 55 0 22.6000 144.900 9 990 0 0 0 22.5000 145.000 4 68 990 23.0000 146.500 TC 55 23.0000 146.500 2 55 28 84
1952363N06171 1952 106 WP MM HESTER 1953-01-04 03:00:00 TS 23.0062 147.575 main 1523 1523 PPP______PP___ WP281952 23.0836 148.078 TD 50 0 22.8801 146.479 9 992 0 0 22.7505 146.666 4 63 992 23.0836 148.078 TC 50 23.1558 148.071 2 51 30 84
1952363N06171 1952 106 WP MM HESTER 1953-01-04 06:00:00 TS 23.1624 149.246 995 tokyo main 1585 1585 OOO______OP___ jtwc_wp WP281952 23.2000 149.700 TD 45 0 23.1000 148.300 9 995 0 0 0 23.0000 148.500 3 58 995 23.2000 149.700 TC 45 23.3121 149.687 2 47 31 84
1952363N06171 1952 106 WP MM HESTER 1953-01-04 09:00:00 TS 23.3106 150.913 main 1670 1670 PPP______PP___ WP281952 23.3992 151.364 TD 42 0 23.1616 150.077 9 995 0 0 23.1181 150.184 3 53 995 23.3992 151.364 TC 42 23.4622 151.335 2 43 31 85
1952363N06171 1952 106 WP MM HESTER 1953-01-04 12:00:00 TS 23.4222 152.556 995 tokyo main 1766 1766 OOO______OO___ jtwc_wp WP281952 23.6000 153.000 TD 40 0 23.2000 152.000 9 995 0 0 0 23.2000 152.000 3 48 995 23.6000 153.000 TC 40 23.6000 153.000 2 40 32 87
1952363N06171 1952 106 WP MM HESTER 1953-01-04 15:00:00 TS 23.5033 154.361 main 1877 1877 PPP______P____ WP281952 23.7272 154.533 TD 35 0 23.3524 154.236 9 995 0 0 23.3182 154.229 3 48 995 23.7272 154.533 TC 35 2 34 88
1952363N06171 1952 106 WP MM HESTER 1953-01-04 18:00:00 MX 23.5455 156.291 995 tokyo main 2011 2011 OOO______O____ jtwc_wp WP281952 23.8000 156.000 TD 30 -1 23.5000 156.400 9 995 0 0 0 23.4000 156.400 9 48 995 23.8000 156.000 TC 30 2 34 90
1952363N06171 1952 106 WP MM HESTER 1953-01-04 21:00:00 ET 23.4925 158.061 main 2141 2141 _PP___________ WP281952 TD -1 23.5752 158.090 9 997 0 0 23.4097 158.033 9 43 997 TC 2 30 91
1952363N06171 1952 106 WP MM HESTER 1953-01-05 00:00:00 ET 23.5000 159.550 1000 tokyo main 2254 2254 _OO___________ 23.6000 159.600 9 1000 0 0 0 23.4000 159.500 9 38 1000 28 91
1952363N06171 1952 106 WP MM HESTER 1953-01-05 03:00:00 ET 23.4336 161.099 main 2377 2377 _PP___________ 23.5158 161.128 9 1000 0 0 23.3514 161.070 9 38 1000 30 91
1952363N06171 1952 106 WP MM HESTER 1953-01-05 06:00:00 ET 23.4500 162.800 1000 tokyo main 2505 2505 _OO___________ 23.5000 162.800 9 1000 0 0 0 23.4000 162.800 9 38 1000 35 86
1952363N06171 1952 106 WP MM HESTER 1953-01-05 09:00:00 ET 23.6499 164.933 main 2669 2669 _PP___________ 23.6713 164.929 9 1000 0 0 23.6285 164.936 9 38 1000 39 82
1952363N06171 1952 106 WP MM HESTER 1953-01-05 12:00:00 MX 24.0000 167.000 1000 tokyo main 2819 2819 _OO___________ 24.0000 167.000 2 1000 0 0 0 24.0000 167.000 9 38 1000 34 76
1952363N06171 1952 106 WP MM HESTER 1953-01-05 15:00:00 MX 24.4767 168.512 main 2890 2890 _PP___________ 24.4589 168.550 2 1000 0 0 24.4944 168.475 9 38 1000 27 69
1952363N06171 1952 106 WP MM HESTER 1953-01-05 18:00:00 MX 25.0000 169.800 1000 tokyo main 2911 2907 _OO___________ 25.0000 169.800 2 1000 0 0 0 25.0000 169.800 9 38 1000 25 67
1952363N06171 1952 106 WP MM HESTER 1953-01-05 21:00:00 MX 25.4569 171.098 main 2934 2850 _PP___________ 25.5692 170.810 2 1001 0 0 25.3447 171.386 9 33 1001 26 72
1952363N06171 1952 106 WP MM HESTER 1953-01-06 00:00:00 ET 25.8000 172.500 1002 tokyo main 2840 2682 _OO___________ 26.0000 172.000 6 1002 0 0 0 25.6000 173.000 9 29 1002 28 80
1952363N06171 1952 106 WP MM HESTER 1953-01-06 03:00:00 ET 25.9613 174.168 main 2672 2503 _PP___________ 26.1105 173.807 6 1004 0 0 25.8121 174.529 9 29 1004 32 86
1952363N06171 1952 106 WP MM HESTER 1953-01-06 06:00:00 ET 26.0000 176.000 1006 tokyo main 2493 _OO___________ 26.0000 176.000 6 1006 0 0 0 26.0000 176.000 9 29 1006 33 89

Digital Typhoon Data and Search

About IBTrACS Database

This database is a web-friendly format of International Best Track Archive for Climate Stewardship (IBTrACS), a global best track data archive curated by NOAA dating back to 1842.

Updated: 2021-10-21